createdAt,value
2022-08-04T00:00:10.903Z,4.15
2022-08-04T00:01:29.328Z,4.05
2022-08-04T00:03:02.896Z,4.10
2022-08-04T00:04:18.538Z,3.83
2022-08-04T00:05:33.164Z,3.95
2022-08-04T00:06:47.323Z,3.75
2022-08-04T00:08:07.343Z,3.78
2022-08-04T00:09:51.391Z,3.78
2022-08-04T00:10:59.870Z,3.92
2022-08-04T00:12:02.782Z,3.47
2022-08-04T00:13:05.677Z,4.47
2022-08-04T00:14:14.903Z,3.70
2022-08-04T00:15:17.580Z,4.05
2022-08-04T00:16:19.981Z,3.90
2022-08-04T00:17:25.803Z,3.58
2022-08-04T00:18:34.831Z,4.28
2022-08-04T00:19:43.242Z,4.20
2022-08-04T00:20:45.788Z,3.90
2022-08-04T00:22:00.024Z,3.65
2022-08-04T00:23:02.894Z,4.10
2022-08-04T00:24:11.848Z,4.10
2022-08-04T00:25:14.780Z,3.85
2022-08-04T00:26:17.630Z,3.88
2022-08-04T00:27:19.348Z,4.07
2022-08-04T00:28:21.865Z,3.90
2022-08-04T00:29:24.152Z,3.75
2022-08-04T00:30:25.969Z,3.92
2022-08-04T00:31:54.289Z,4.07
2022-08-04T00:32:49.797Z,4.10
2022-08-04T00:33:51.592Z,3.83
2022-08-04T00:34:57.751Z,3.83
2022-08-04T00:36:00.789Z,4.25
2022-08-04T00:37:03.360Z,3.92
2022-08-04T00:38:05.681Z,3.90
2022-08-04T00:39:11.810Z,3.53
2022-08-04T00:40:36.595Z,3.95
2022-08-04T00:41:56.940Z,4.13
2022-08-04T00:43:17.406Z,3.80
2022-08-04T00:44:39.386Z,3.60
2022-08-04T00:46:17.426Z,3.95
2022-08-04T00:47:31.404Z,3.58
2022-08-04T00:48:47.947Z,4.07
2022-08-04T00:50:03.649Z,3.58
2022-08-04T00:51:16.381Z,4.03
2022-08-04T00:52:47.513Z,4.50
2022-08-04T00:53:54.738Z,4.13
2022-08-04T00:54:56.275Z,4.20
2022-08-04T00:56:18.082Z,4.25
2022-08-04T00:57:40.333Z,4.40
2022-08-04T00:59:00.517Z,3.85
2022-08-04T01:00:14.285Z,4.10
2022-08-04T01:01:48.829Z,4.05
2022-08-04T01:03:08.444Z,4.20
2022-08-04T01:04:25.886Z,4.05
2022-08-04T01:05:56.748Z,4.00
2022-08-04T01:07:43.254Z,4.10
2022-08-04T01:09:22.137Z,4.32
2022-08-04T01:10:40.983Z,4.00
2022-08-04T01:11:56.572Z,4.18
2022-08-04T01:13:15.319Z,4.20
2022-08-04T01:14:28.406Z,4.20
2022-08-04T01:16:00.319Z,4.00
2022-08-04T01:17:16.695Z,4.32
2022-08-04T01:18:39.817Z,3.58
2022-08-04T01:19:57.521Z,3.70
2022-08-04T01:21:17.568Z,3.88
2022-08-04T01:22:34.194Z,4.13
2022-08-04T01:24:03.164Z,4.05
2022-08-04T01:25:10.818Z,3.90
2022-08-04T01:26:53.676Z,3.75
2022-08-04T01:28:21.174Z,3.85
2022-08-04T01:29:30.486Z,4.00
2022-08-04T01:30:50.172Z,4.07
2022-08-04T01:32:02.672Z,4.10
2022-08-04T01:33:08.962Z,4.30
2022-08-04T01:34:13.048Z,4.43
2022-08-04T01:35:47.550Z,4.30
2022-08-04T01:37:00.657Z,4.20
2022-08-04T01:38:20.064Z,4.47
2022-08-04T01:39:41.967Z,3.92
2022-08-04T01:40:45.214Z,4.68
2022-08-04T01:41:57.755Z,4.60
2022-08-04T01:43:01.946Z,4.38
2022-08-04T01:44:05.607Z,4.53
2022-08-04T01:45:10.883Z,4.60
2022-08-04T01:46:16.974Z,4.68
2022-08-04T01:47:21.567Z,4.80
2022-08-04T01:48:25.631Z,4.75
2022-08-04T01:49:32.118Z,4.70
2022-08-04T01:50:45.087Z,4.68
2022-08-04T01:51:50.037Z,4.90
2022-08-04T01:52:54.361Z,4.65
2022-08-04T01:53:55.945Z,4.50
2022-08-04T01:54:58.150Z,4.63
2022-08-04T01:56:01.687Z,4.93
2022-08-04T01:57:38.200Z,4.25
2022-08-04T01:58:30.676Z,4.20
2022-08-04T01:59:34.900Z,4.40
2022-08-04T02:00:44.326Z,4.55
2022-08-04T02:01:46.767Z,4.18
2022-08-04T02:02:51.372Z,4.20
2022-08-04T02:04:21.883Z,4.47
2022-08-04T02:05:16.971Z,4.53
2022-08-04T02:07:00.176Z,4.95
2022-08-04T02:08:31.144Z,4.60
2022-08-04T02:09:53.742Z,4.75
2022-08-04T02:11:05.477Z,4.47
2022-08-04T02:12:18.989Z,4.32
2022-08-04T02:13:27.981Z,4.50
2022-08-04T02:14:45.588Z,4.45
2022-08-04T02:16:16.477Z,4.43
2022-08-04T02:17:46.301Z,4.30
2022-08-04T02:19:20.827Z,4.30
2022-08-04T02:20:32.238Z,4.53
2022-08-04T02:21:42.350Z,4.88
2022-08-04T02:22:58.497Z,4.68
2022-08-04T02:24:08.457Z,4.72
2022-08-04T02:25:11.503Z,4.68
2022-08-04T02:26:22.575Z,4.18
2022-08-04T02:28:00.096Z,4.90
2022-08-04T02:29:15.409Z,4.60
2022-08-04T02:30:19.263Z,4.53
2022-08-04T02:31:34.660Z,4.53
2022-08-04T02:32:41.628Z,4.40
2022-08-04T02:33:45.609Z,4.90
2022-08-04T02:35:05.700Z,4.60
2022-08-04T02:36:10.591Z,4.72
2022-08-04T02:37:12.602Z,5.05
2022-08-04T02:38:33.167Z,5.00
2022-08-04T02:39:47.903Z,4.53
2022-08-04T02:40:53.368Z,4.53
2022-08-04T02:41:59.587Z,4.38
2022-08-04T02:43:04.582Z,4.80
2022-08-04T02:44:08.936Z,5.07
2022-08-04T02:45:12.417Z,4.45
2022-08-04T02:46:18.022Z,4.75
2022-08-04T02:47:22.294Z,5.05
2022-08-04T02:48:30.914Z,4.47
2022-08-04T02:49:36.916Z,4.60
2022-08-04T02:50:44.820Z,4.88
2022-08-04T02:51:52.047Z,4.55
2022-08-04T02:52:55.064Z,5.05
2022-08-04T02:53:59.070Z,4.75
2022-08-04T02:55:02.199Z,4.65
2022-08-04T02:56:07.107Z,4.45
2022-08-04T02:57:11.234Z,4.53
2022-08-04T02:58:15.296Z,5.10
2022-08-04T02:59:20.389Z,4.78
2022-08-04T03:00:25.644Z,4.88
2022-08-04T03:01:27.458Z,4.63
2022-08-04T03:02:38.840Z,4.45
2022-08-04T03:04:02.103Z,4.63
2022-08-04T03:05:13.560Z,4.25
2022-08-04T03:06:28.750Z,4.82
2022-08-04T03:07:56.648Z,4.63
2022-08-04T03:09:35.980Z,5.32
2022-08-04T03:10:43.595Z,4.90
2022-08-04T03:12:19.727Z,4.32
2022-08-04T03:13:36.993Z,4.35
2022-08-04T03:15:06.288Z,4.97
2022-08-04T03:16:55.468Z,4.68
2022-08-04T03:18:15.446Z,5.07
2022-08-04T03:19:17.048Z,4.82
2022-08-04T03:20:50.785Z,4.93
2022-08-04T03:22:10.971Z,5.20
2022-08-04T03:23:15.296Z,5.13
2022-08-04T03:24:37.859Z,5.50
2022-08-04T03:26:00.866Z,4.72
2022-08-04T03:27:25.632Z,5.13
2022-08-04T03:29:01.244Z,5.10
2022-08-04T03:30:16.052Z,5.20
2022-08-04T03:31:54.853Z,4.80
2022-08-04T03:33:21.240Z,5.32
2022-08-04T03:34:36.081Z,5.22
2022-08-04T03:36:02.007Z,5.40
2022-08-04T03:37:22.162Z,5.53
2022-08-04T03:38:56.317Z,6.03
2022-08-04T03:40:11.061Z,6.07
2022-08-04T03:42:03.578Z,5.72
2022-08-04T03:43:57.202Z,5.78
2022-08-04T03:45:27.515Z,6.07
2022-08-04T03:46:38.059Z,6.00
2022-08-04T03:48:07.297Z,5.50
2022-08-04T03:49:39.801Z,5.63
2022-08-04T03:51:41.631Z,5.47
2022-08-04T03:53:10.912Z,5.47
2022-08-04T03:54:30.763Z,5.40
2022-08-04T03:56:03.708Z,5.35
2022-08-04T03:57:24.128Z,5.32
2022-08-04T03:59:03.038Z,5.32
2022-08-04T04:00:27.412Z,5.10
2022-08-04T04:02:02.812Z,5.20
2022-08-04T04:03:28.214Z,4.30
2022-08-04T04:04:49.703Z,4.20
2022-08-04T04:06:16.008Z,4.63
2022-08-04T04:07:38.371Z,5.50
2022-08-04T04:09:20.638Z,4.53
2022-08-04T04:10:41.202Z,4.22
2022-08-04T04:11:58.195Z,4.30
2022-08-04T04:13:10.042Z,4.45
2022-08-04T04:14:49.798Z,4.65
2022-08-04T04:16:02.936Z,4.43
2022-08-04T04:17:14.781Z,4.55
2022-08-04T04:18:38.019Z,5.15
2022-08-04T04:20:05.634Z,4.68
2022-08-04T04:21:44.910Z,5.10
2022-08-04T04:23:10.363Z,4.53
2022-08-04T04:24:36.891Z,5.10
2022-08-04T04:25:59.445Z,5.18
2022-08-04T04:27:19.501Z,4.70
2022-08-04T04:28:44.611Z,5.03
2022-08-04T04:30:04.936Z,4.63
2022-08-04T04:31:09.426Z,4.68
2022-08-04T04:32:54.709Z,4.43
2022-08-04T04:34:02.355Z,5.00
2022-08-04T04:35:09.458Z,4.63
2022-08-04T04:36:26.269Z,4.90
2022-08-04T04:37:48.604Z,4.88
2022-08-04T04:39:09.475Z,5.13
2022-08-04T04:40:22.814Z,5.80
2022-08-04T04:41:33.952Z,5.32
2022-08-04T04:42:47.607Z,4.95
2022-08-04T04:44:00.521Z,5.75
2022-08-04T04:45:33.664Z,5.75
2022-08-04T04:46:41.991Z,5.32
2022-08-04T04:48:08.711Z,5.35
2022-08-04T04:49:22.584Z,5.50
2022-08-04T04:50:33.647Z,5.55
2022-08-04T04:51:49.505Z,5.18
2022-08-04T04:52:58.214Z,4.95
2022-08-04T04:54:11.351Z,4.50
2022-08-04T04:55:21.048Z,4.75
2022-08-04T04:56:35.175Z,4.45
2022-08-04T04:57:53.386Z,4.53
2022-08-04T04:58:58.728Z,4.80
2022-08-04T05:00:09.086Z,4.43
2022-08-04T05:01:31.543Z,4.68
2022-08-04T05:03:00.126Z,4.05
2022-08-04T05:04:50.661Z,3.92
2022-08-04T05:06:15.159Z,3.92
2022-08-04T05:07:38.438Z,4.00
2022-08-04T05:08:54.388Z,3.03
2022-08-04T05:10:03.144Z,3.90
2022-08-04T05:11:31.186Z,3.90
2022-08-04T05:14:32.612Z,3.95
2022-08-04T05:14:35.069Z,3.80
2022-08-04T05:15:37.469Z,3.88
2022-08-04T05:16:45.106Z,3.58
2022-08-04T05:17:53.061Z,3.60
2022-08-04T05:19:28.363Z,3.47
2022-08-04T05:20:37.508Z,3.53
2022-08-04T05:21:43.035Z,3.70
2022-08-04T05:22:59.748Z,4.00
2022-08-04T05:24:08.192Z,3.75
2022-08-04T05:25:58.674Z,3.88
2022-08-04T05:27:05.811Z,3.50
2022-08-04T05:28:32.461Z,3.83
2022-08-04T05:29:43.341Z,3.40
2022-08-04T05:30:50.002Z,3.95
2022-08-04T05:31:54.434Z,4.53
2022-08-04T05:33:03.657Z,4.35
2022-08-04T05:34:30.999Z,4.05
2022-08-04T05:36:18.374Z,4.22
2022-08-04T05:37:16.427Z,3.45
2022-08-04T05:38:22.425Z,3.80
2022-08-04T05:39:34.094Z,4.03
2022-08-04T05:40:39.740Z,3.80
2022-08-04T05:41:45.204Z,3.80
2022-08-04T05:42:48.841Z,4.00
2022-08-04T05:43:50.595Z,3.80
2022-08-04T05:44:52.501Z,3.42
2022-08-04T05:45:57.800Z,3.63
2022-08-04T05:47:00.039Z,4.00
2022-08-04T05:48:03.481Z,3.80
2022-08-04T05:49:05.744Z,3.88
2022-08-04T05:50:08.930Z,4.53
2022-08-04T05:51:11.502Z,3.58
2022-08-04T05:52:14.965Z,3.90
2022-08-04T05:53:17.995Z,3.80
2022-08-04T05:54:21.924Z,3.40
2022-08-04T05:55:57.181Z,3.63
2022-08-04T05:56:46.690Z,3.95
2022-08-04T05:57:54.072Z,3.83
2022-08-04T05:58:58.384Z,3.80
2022-08-04T06:00:14.876Z,3.80
2022-08-04T06:01:25.246Z,4.20
2022-08-04T06:02:28.450Z,4.55
2022-08-04T06:03:31.409Z,3.90
2022-08-04T06:04:39.728Z,4.00
2022-08-04T06:05:43.892Z,3.92
2022-08-04T06:06:46.964Z,3.72
2022-08-04T06:08:04.626Z,3.83
2022-08-04T06:09:12.027Z,4.10
2022-08-04T06:10:14.081Z,5.38
2022-08-04T06:11:17.184Z,5.35
2022-08-04T06:12:23.367Z,4.40
2022-08-04T06:13:47.642Z,4.30
2022-08-04T06:14:54.888Z,4.95
2022-08-04T06:16:02.765Z,4.85
2022-08-04T06:18:32.270Z,4.57
2022-08-04T06:18:42.169Z,4.57
2022-08-04T06:20:02.567Z,5.38
2022-08-04T06:21:23.033Z,4.60
2022-08-04T06:22:26.448Z,4.20
2022-08-04T06:23:31.772Z,4.32
2022-08-04T06:24:36.168Z,4.30
2022-08-04T06:25:48.768Z,5.35
2022-08-04T06:26:52.622Z,4.90
2022-08-04T06:27:56.066Z,4.45
2022-08-04T06:28:58.530Z,4.80
2022-08-04T06:30:01.935Z,4.68
2022-08-04T06:32:31.730Z,4.97
2022-08-04T06:32:47.768Z,4.68
2022-08-04T06:33:54.278Z,4.43
2022-08-04T06:35:02.101Z,4.63
2022-08-04T06:36:06.955Z,4.72
2022-08-04T06:37:09.877Z,4.53
2022-08-04T06:38:11.891Z,4.90
2022-08-04T06:39:14.606Z,4.70
2022-08-04T06:40:30.665Z,4.22
2022-08-04T06:41:34.667Z,5.25
2022-08-04T06:42:37.594Z,4.82
2022-08-04T06:43:42.796Z,4.55
2022-08-04T06:44:51.326Z,5.07
2022-08-04T06:45:54.919Z,4.70
2022-08-04T06:46:57.732Z,4.90
2022-08-04T06:48:01.143Z,4.20
2022-08-04T06:49:04.811Z,4.60
2022-08-04T06:51:30.845Z,4.72
2022-08-04T06:51:38.012Z,4.70
2022-08-04T06:52:44.921Z,4.40
2022-08-04T06:53:46.759Z,4.60
2022-08-04T06:54:51.591Z,4.68
2022-08-04T06:55:54.496Z,5.25
2022-08-04T06:56:58.208Z,4.75
2022-08-04T06:58:03.303Z,4.75
2022-08-04T06:59:06.091Z,4.80
2022-08-04T07:00:12.184Z,4.75
2022-08-04T07:01:16.739Z,5.28
2022-08-04T07:02:24.027Z,4.00
2022-08-04T07:03:25.641Z,4.72
2022-08-04T07:04:27.765Z,4.80
2022-08-04T07:05:30.569Z,5.22
2022-08-04T07:06:33.021Z,4.57
2022-08-04T07:07:36.792Z,4.80
2022-08-04T07:08:41.567Z,4.45
2022-08-04T07:09:43.492Z,4.90
2022-08-04T07:10:46.022Z,5.70
2022-08-04T07:11:49.446Z,5.40
2022-08-04T07:12:53.824Z,4.35
2022-08-04T07:13:56.965Z,5.28
2022-08-04T07:14:59.167Z,4.80
2022-08-04T07:16:01.737Z,4.95
2022-08-04T07:17:05.453Z,4.75
2022-08-04T07:18:07.162Z,4.60
2022-08-04T07:19:10.007Z,4.65
2022-08-04T07:20:12.598Z,4.80
2022-08-04T07:21:22.630Z,4.20
2022-08-04T07:22:26.336Z,4.63
2022-08-04T07:23:28.257Z,4.28
2022-08-04T07:24:35.605Z,4.78
2022-08-04T07:25:58.661Z,4.28
2022-08-04T07:26:59.302Z,4.65
2022-08-04T07:28:01.003Z,4.10
2022-08-04T07:29:02.863Z,4.57
2022-08-04T07:30:08.020Z,4.72
2022-08-04T07:31:33.831Z,4.75
2022-08-04T07:32:38.296Z,4.20
2022-08-04T07:33:42.374Z,5.03
2022-08-04T07:34:49.941Z,4.70
2022-08-04T07:36:05.150Z,4.80
2022-08-04T07:37:12.690Z,4.85
2022-08-04T07:38:14.900Z,4.80
2022-08-04T07:39:21.881Z,4.88
2022-08-04T07:40:31.463Z,4.45
2022-08-04T07:41:36.923Z,4.70
2022-08-04T07:42:39.173Z,4.82
2022-08-04T07:43:41.646Z,5.05
2022-08-04T07:44:46.304Z,4.72
2022-08-04T07:45:48.693Z,4.80
2022-08-04T07:46:50.339Z,4.65
2022-08-04T07:48:05.184Z,4.20
2022-08-04T07:49:08.362Z,4.82
2022-08-04T07:50:11.173Z,4.90
2022-08-04T07:51:13.381Z,4.97
2022-08-04T07:52:16.147Z,4.97
2022-08-04T07:53:55.195Z,5.20
2022-08-04T07:54:41.408Z,5.15
2022-08-04T07:55:46.741Z,4.63
2022-08-04T07:56:51.913Z,5.05
2022-08-04T07:57:53.489Z,5.60
2022-08-04T07:58:55.916Z,5.07
2022-08-04T07:59:57.614Z,5.32
2022-08-04T08:00:59.483Z,4.53
2022-08-04T08:02:02.176Z,4.57
2022-08-04T08:03:04.846Z,4.80
2022-08-04T08:04:08.135Z,5.30
2022-08-04T08:05:12.855Z,4.68
2022-08-04T08:06:31.635Z,4.85
2022-08-04T08:07:35.908Z,4.05
2022-08-04T08:08:40.732Z,3.92
2022-08-04T08:09:42.459Z,4.50
2022-08-04T08:10:48.589Z,3.90
2022-08-04T08:12:35.882Z,4.10
2022-08-04T08:13:15.856Z,4.50
2022-08-04T08:14:19.066Z,4.35
2022-08-04T08:15:21.848Z,4.00
2022-08-04T08:16:23.856Z,4.40
2022-08-04T08:17:27.321Z,4.15
2022-08-04T08:18:30.337Z,3.35
2022-08-04T08:19:32.982Z,4.05
2022-08-04T08:20:34.829Z,3.90
2022-08-04T08:21:36.653Z,3.83
2022-08-04T08:22:59.763Z,4.18
2022-08-04T08:24:01.577Z,3.80
2022-08-04T08:25:05.169Z,3.17
2022-08-04T08:26:07.260Z,3.63
2022-08-04T08:27:08.977Z,3.72
2022-08-04T08:28:11.358Z,3.75
2022-08-04T08:29:13.417Z,3.97
2022-08-04T08:30:15.036Z,3.55
2022-08-04T08:31:16.597Z,4.18
2022-08-04T08:32:18.858Z,3.53
2022-08-04T08:33:22.743Z,3.85
2022-08-04T08:34:28.235Z,3.90
2022-08-04T08:35:49.973Z,3.38
2022-08-04T08:37:09.964Z,3.55
2022-08-04T08:38:15.902Z,3.70
2022-08-04T08:39:38.693Z,3.60
2022-08-04T08:41:13.694Z,3.65
2022-08-04T08:42:21.271Z,4.00
2022-08-04T08:44:05.789Z,4.22
2022-08-04T08:45:17.658Z,3.72
2022-08-04T08:46:49.899Z,3.42
2022-08-04T08:48:17.810Z,3.75
2022-08-04T08:50:02.293Z,3.67
2022-08-04T08:51:18.649Z,3.20
2022-08-04T08:53:00.713Z,3.75
2022-08-04T08:54:22.763Z,4.40
2022-08-04T08:55:37.154Z,4.22
2022-08-04T08:57:00.540Z,3.92
2022-08-04T08:58:20.931Z,3.95
2022-08-04T08:59:40.503Z,4.60
2022-08-04T09:00:53.965Z,4.30
2022-08-04T09:02:03.526Z,3.80
2022-08-04T09:03:53.578Z,4.03
2022-08-04T09:05:07.272Z,3.65
2022-08-04T09:06:26.744Z,3.85
2022-08-04T09:07:47.439Z,3.83
2022-08-04T09:09:10.621Z,4.18
2022-08-04T09:10:17.983Z,3.38
2022-08-04T09:11:23.989Z,3.30
2022-08-04T09:12:41.723Z,3.33
2022-08-04T09:13:43.259Z,3.30
2022-08-04T09:14:54.395Z,3.60
2022-08-04T09:16:17.260Z,3.65
2022-08-04T09:17:35.627Z,3.53
2022-08-04T09:19:08.669Z,3.78
2022-08-04T09:20:31.024Z,3.42
2022-08-04T09:21:56.733Z,3.30
2022-08-04T09:23:14.002Z,3.00
2022-08-04T09:24:36.363Z,3.40
2022-08-04T09:25:49.863Z,3.25
2022-08-04T09:27:01.693Z,3.78
2022-08-04T09:28:11.284Z,3.40
2022-08-04T09:29:37.632Z,4.05
2022-08-04T09:30:45.622Z,3.70
2022-08-04T09:32:22.671Z,3.47
2022-08-04T09:33:44.315Z,3.70
2022-08-04T09:35:13.352Z,3.65
2022-08-04T09:36:37.636Z,3.72
2022-08-04T09:37:57.569Z,3.42
2022-08-04T09:39:57.971Z,3.08
2022-08-04T09:41:20.827Z,3.35
2022-08-04T09:42:34.629Z,3.50
2022-08-04T09:43:59.078Z,3.22
2022-08-04T09:45:43.353Z,3.78
2022-08-04T09:47:04.049Z,3.40
2022-08-04T09:48:12.398Z,3.35
2022-08-04T09:49:21.435Z,3.53
2022-08-04T09:50:53.978Z,2.90
2022-08-04T09:52:11.833Z,3.10
2022-08-04T09:53:50.870Z,3.15
2022-08-04T09:54:58.341Z,3.28
2022-08-04T09:56:09.851Z,2.90
2022-08-04T09:57:39.402Z,2.95
2022-08-04T09:58:40.980Z,2.67
2022-08-04T10:00:01.887Z,3.53
2022-08-04T10:01:11.671Z,3.42
2022-08-04T10:02:15.908Z,3.33
2022-08-04T10:03:20.640Z,3.83
2022-08-04T10:04:25.679Z,3.10
2022-08-04T10:05:44.791Z,2.70
2022-08-04T10:07:14.748Z,3.00
2022-08-04T10:08:22.324Z,2.55
2022-08-04T10:09:42.688Z,2.33
2022-08-04T10:11:03.979Z,2.50
2022-08-04T10:12:23.854Z,2.50
2022-08-04T10:13:40.452Z,3.20
2022-08-04T10:15:20.168Z,2.50
2022-08-04T10:16:36.919Z,2.60
2022-08-04T10:17:54.266Z,2.35
2022-08-04T10:19:15.576Z,2.55
2022-08-04T10:20:44.367Z,2.58
2022-08-04T10:22:29.926Z,2.45
2022-08-04T10:23:55.335Z,2.65
2022-08-04T10:26:03.599Z,2.00
2022-08-04T10:26:57.488Z,2.22
2022-08-04T10:28:06.040Z,2.25
2022-08-04T10:29:16.517Z,2.25
2022-08-04T10:30:20.248Z,2.00
2022-08-04T10:31:33.842Z,1.90
2022-08-04T10:32:43.026Z,1.95
2022-08-04T10:33:58.258Z,1.90
2022-08-04T10:35:09.103Z,2.20
2022-08-04T10:36:13.740Z,2.28
2022-08-04T10:37:54.683Z,1.83
2022-08-04T10:39:07.729Z,2.17
2022-08-04T10:40:40.598Z,2.05
2022-08-04T10:42:03.895Z,1.58
2022-08-04T10:43:22.059Z,2.10
2022-08-04T10:44:41.914Z,2.13
2022-08-04T10:45:57.863Z,2.22
2022-08-04T10:47:08.180Z,2.08
2022-08-04T10:48:34.181Z,2.30
2022-08-04T10:49:55.481Z,2.00
2022-08-04T10:51:11.791Z,1.88
2022-08-04T10:52:19.084Z,2.15
2022-08-04T10:53:24.564Z,2.25
2022-08-04T10:54:52.705Z,2.53
2022-08-04T10:56:11.069Z,2.65
2022-08-04T10:57:30.562Z,2.28
2022-08-04T10:58:56.281Z,2.17
2022-08-04T11:00:09.423Z,2.10
2022-08-04T11:01:50.713Z,2.20
2022-08-04T11:02:58.576Z,2.20
2022-08-04T11:04:15.731Z,2.10
2022-08-04T11:05:44.263Z,2.15
2022-08-04T11:06:47.907Z,2.10
2022-08-04T11:07:53.735Z,2.40
2022-08-04T11:08:57.032Z,1.98
2022-08-04T11:09:58.976Z,2.08
2022-08-04T11:11:25.153Z,1.95
2022-08-04T11:12:28.682Z,2.05
2022-08-04T11:13:45.079Z,2.20
2022-08-04T11:15:07.768Z,2.50
2022-08-04T11:16:33.091Z,2.10
2022-08-04T11:17:59.033Z,2.25
2022-08-04T11:19:23.015Z,2.20
2022-08-04T11:21:13.501Z,2.35
2022-08-04T11:22:23.175Z,2.30
2022-08-04T11:23:32.762Z,2.38
2022-08-04T11:24:34.296Z,2.30
2022-08-04T11:25:41.700Z,2.35
2022-08-04T11:26:55.364Z,2.15
2022-08-04T11:28:18.580Z,2.33
2022-08-04T11:29:45.309Z,2.45
2022-08-04T11:30:53.842Z,2.20
2022-08-04T11:31:59.539Z,2.00
2022-08-04T11:33:09.612Z,2.28
2022-08-04T11:34:20.747Z,2.00
2022-08-04T11:35:32.480Z,1.85
2022-08-04T11:36:41.918Z,2.40
2022-08-04T11:37:52.243Z,2.25
2022-08-04T11:39:06.238Z,2.60
2022-08-04T11:40:13.717Z,2.33
2022-08-04T11:41:22.109Z,2.42
2022-08-04T11:42:37.763Z,2.20
2022-08-04T11:44:00.549Z,2.50
2022-08-04T11:45:07.894Z,2.40
2022-08-04T11:46:17.725Z,2.50
2022-08-04T11:47:27.665Z,2.20
2022-08-04T11:48:48.573Z,2.65
2022-08-04T11:49:58.695Z,2.83
2022-08-04T11:51:06.717Z,2.58
2022-08-04T11:52:12.641Z,2.88
2022-08-04T11:53:23.484Z,2.33
2022-08-04T11:54:25.090Z,2.60
2022-08-04T11:55:28.956Z,2.40
2022-08-04T11:56:35.715Z,2.25
2022-08-04T11:57:39.734Z,2.28
2022-08-04T11:58:41.698Z,2.50
2022-08-04T11:59:55.842Z,2.35
2022-08-04T12:01:12.199Z,2.63
2022-08-04T12:02:33.483Z,2.75
2022-08-04T12:04:01.200Z,2.50
2022-08-04T12:05:08.190Z,2.70
2022-08-04T12:06:28.955Z,2.53
2022-08-04T12:08:00.214Z,2.60
2022-08-04T12:09:13.683Z,2.40
2022-08-04T12:10:40.284Z,2.40
2022-08-04T12:12:16.067Z,2.97
2022-08-04T12:13:42.099Z,2.70
2022-08-04T12:14:55.621Z,3.10
2022-08-04T12:16:18.543Z,2.92
2022-08-04T12:17:52.075Z,2.78
2022-08-04T12:18:58.015Z,2.80
2022-08-04T12:20:40.418Z,3.50
2022-08-04T12:21:44.211Z,2.78
2022-08-04T12:22:58.426Z,2.70
2022-08-04T12:24:06.544Z,3.17
2022-08-04T12:25:16.263Z,2.85
2022-08-04T12:26:23.339Z,2.63
2022-08-04T12:27:30.921Z,2.90
2022-08-04T12:28:59.508Z,2.78
2022-08-04T12:30:58.558Z,2.63
2022-08-04T12:31:26.777Z,3.97
2022-08-04T12:32:31.005Z,2.50
2022-08-04T12:34:04.423Z,2.83
2022-08-04T12:35:10.937Z,2.80
2022-08-04T12:36:25.144Z,2.78
2022-08-04T12:37:39.140Z,2.33
2022-08-04T12:38:52.549Z,2.67
2022-08-04T12:40:27.926Z,2.70
2022-08-04T12:41:24.950Z,3.17
2022-08-04T12:42:59.800Z,2.65
2022-08-04T12:44:32.623Z,2.88
2022-08-04T12:45:34.997Z,3.22
2022-08-04T12:46:38.060Z,2.95
2022-08-04T12:47:41.889Z,2.83
2022-08-04T12:48:47.211Z,2.88
2022-08-04T12:50:00.361Z,2.95
2022-08-04T12:51:03.948Z,3.08
2022-08-04T12:52:09.476Z,2.58
2022-08-04T12:53:31.328Z,2.90
2022-08-04T12:54:36.894Z,2.90
2022-08-04T12:55:45.107Z,3.05
2022-08-04T12:57:07.061Z,2.65
2022-08-04T12:58:16.282Z,2.70
2022-08-04T12:59:41.431Z,3.40
2022-08-04T13:00:50.799Z,2.90
2022-08-04T13:02:07.411Z,2.78
2022-08-04T13:03:16.876Z,2.97
2022-08-04T13:04:29.137Z,2.80
2022-08-04T13:05:32.640Z,2.67
2022-08-04T13:06:36.519Z,3.00
2022-08-04T13:07:46.266Z,3.20
2022-08-04T13:08:49.067Z,2.90
2022-08-04T13:09:51.792Z,3.30
2022-08-04T13:10:58.634Z,3.00
2022-08-04T13:12:13.832Z,3.30
2022-08-04T13:13:18.469Z,3.38
2022-08-04T13:14:27.059Z,3.35
2022-08-04T13:15:30.884Z,3.17
2022-08-04T13:16:33.604Z,3.13
2022-08-04T13:17:59.154Z,3.15
2022-08-04T13:19:05.221Z,3.30
2022-08-04T13:20:07.845Z,3.20
2022-08-04T13:21:20.883Z,3.10
2022-08-04T13:22:30.295Z,3.20
2022-08-04T13:24:09.334Z,3.22
2022-08-04T13:25:17.880Z,2.85
2022-08-04T13:26:44.988Z,3.17
2022-08-04T13:27:46.720Z,3.10
2022-08-04T13:28:53.227Z,2.90
2022-08-04T13:29:58.889Z,3.13
2022-08-04T13:31:07.480Z,3.20
2022-08-04T13:32:10.759Z,3.35
2022-08-04T13:33:13.256Z,3.10
2022-08-04T13:34:18.840Z,3.03
2022-08-04T13:35:21.709Z,2.97
2022-08-04T13:36:28.933Z,2.55
2022-08-04T13:37:40.596Z,2.83
2022-08-04T13:38:51.656Z,3.58
2022-08-04T13:39:55.306Z,3.15
2022-08-04T13:41:01.187Z,2.83
2022-08-04T13:42:08.959Z,2.88
2022-08-04T13:44:15.519Z,2.90
2022-08-04T13:44:49.056Z,2.97
2022-08-04T13:45:51.943Z,2.70
2022-08-04T13:46:58.827Z,3.00
2022-08-04T13:48:15.797Z,2.97
2022-08-04T13:49:37.626Z,3.30
2022-08-04T13:50:47.087Z,3.05
2022-08-04T13:51:57.663Z,3.10
2022-08-04T13:53:02.536Z,3.25
2022-08-04T13:54:05.750Z,3.05
2022-08-04T13:55:08.320Z,2.90
2022-08-04T13:56:13.411Z,3.47
2022-08-04T13:57:19.635Z,2.92
2022-08-04T13:58:24.344Z,3.05
2022-08-04T13:59:28.640Z,2.78
2022-08-04T14:00:54.997Z,3.08
2022-08-04T14:02:01.448Z,2.95
2022-08-04T14:03:23.700Z,3.20
2022-08-04T14:04:31.983Z,3.28
2022-08-04T14:05:58.850Z,3.38
2022-08-04T14:07:16.164Z,3.38
2022-08-04T14:08:29.150Z,2.88
2022-08-04T14:09:35.153Z,2.72
2022-08-04T14:10:39.223Z,2.92
2022-08-04T14:12:10.973Z,2.90
2022-08-04T14:13:08.733Z,3.15
2022-08-04T14:14:16.050Z,2.83
2022-08-04T14:16:01.133Z,3.10
2022-08-04T14:17:07.633Z,3.20
2022-08-04T14:18:24.291Z,2.97
2022-08-04T14:19:30.919Z,2.55
2022-08-04T14:20:37.779Z,2.83
2022-08-04T14:21:42.002Z,3.00
2022-08-04T14:22:43.796Z,3.35
2022-08-04T14:23:48.406Z,2.50
2022-08-04T14:24:59.506Z,3.25
2022-08-04T14:26:14.355Z,3.20
2022-08-04T14:27:15.939Z,3.17
2022-08-04T14:29:08.394Z,3.05
2022-08-04T14:29:52.972Z,3.05
2022-08-04T14:31:11.020Z,2.75
2022-08-04T14:32:14.841Z,2.88
2022-08-04T14:33:59.656Z,3.17
2022-08-04T14:34:47.227Z,2.88
2022-08-04T14:35:58.647Z,2.70
2022-08-04T14:37:16.447Z,2.90
2022-08-04T14:38:20.491Z,2.92
2022-08-04T14:39:41.880Z,2.83
2022-08-04T14:41:03.341Z,3.00
2022-08-04T14:42:06.339Z,2.65
2022-08-04T14:43:09.695Z,2.60
2022-08-04T14:44:11.350Z,3.05
2022-08-04T14:45:12.994Z,2.67
2022-08-04T14:46:15.673Z,3.13
2022-08-04T14:47:17.250Z,2.50
2022-08-04T14:48:18.907Z,2.53
2022-08-04T14:49:21.793Z,2.53
2022-08-04T14:50:35.012Z,3.10
2022-08-04T14:51:42.571Z,2.80
2022-08-04T14:52:45.096Z,3.17
2022-08-04T14:53:48.242Z,2.90
2022-08-04T14:54:49.949Z,2.85
2022-08-04T14:55:57.008Z,3.00
2022-08-04T14:57:02.867Z,3.17
2022-08-04T14:58:34.748Z,3.40
2022-08-04T14:59:40.170Z,2.50
2022-08-04T15:00:46.470Z,3.20
2022-08-04T15:02:01.231Z,3.10
2022-08-04T15:03:08.756Z,3.22
2022-08-04T15:04:11.495Z,3.47
2022-08-04T15:06:00.072Z,3.30
2022-08-04T15:06:37.493Z,3.30
2022-08-04T15:07:39.163Z,3.05
2022-08-04T15:08:44.310Z,3.08
2022-08-04T15:09:48.791Z,2.72
2022-08-04T15:10:50.555Z,3.00
2022-08-04T15:11:52.465Z,2.63
2022-08-04T15:12:55.319Z,2.78
2022-08-04T15:13:58.846Z,2.92
2022-08-04T15:15:20.083Z,3.10
2022-08-04T15:16:24.907Z,2.95
2022-08-04T15:17:29.839Z,2.92
2022-08-04T15:18:32.147Z,2.90
2022-08-04T15:19:34.679Z,3.47
2022-08-04T15:20:38.950Z,2.78
2022-08-04T15:21:41.403Z,2.50
2022-08-04T15:22:43.100Z,2.90
2022-08-04T15:23:44.766Z,2.95
2022-08-04T15:24:46.412Z,3.00
2022-08-04T15:26:02.380Z,2.80
2022-08-04T15:27:05.326Z,3.00
2022-08-04T15:28:12.400Z,2.80
2022-08-04T15:29:59.508Z,2.90
2022-08-04T15:31:05.150Z,2.60
2022-08-04T15:32:15.166Z,3.15
2022-08-04T15:33:23.817Z,2.85
2022-08-04T15:34:46.022Z,2.90
2022-08-04T15:35:50.482Z,3.20
2022-08-04T15:36:57.100Z,2.72
2022-08-04T15:38:01.980Z,3.05
2022-08-04T15:39:16.816Z,2.90
2022-08-04T15:40:45.485Z,3.30
2022-08-04T15:42:21.593Z,3.00
2022-08-04T15:43:45.081Z,2.85
2022-08-04T15:45:05.151Z,2.80
2022-08-04T15:46:43.575Z,2.83
2022-08-04T15:47:29.375Z,2.70
2022-08-04T15:48:32.532Z,3.17
2022-08-04T15:49:34.204Z,2.70
2022-08-04T15:50:56.208Z,2.83
2022-08-04T15:52:11.745Z,3.03
2022-08-04T15:53:13.841Z,2.83
2022-08-04T15:54:27.946Z,3.00
2022-08-04T15:55:39.429Z,2.80
2022-08-04T15:56:48.546Z,2.63
2022-08-04T15:58:06.332Z,2.92
2022-08-04T15:59:08.548Z,2.88
2022-08-04T16:00:14.907Z,2.90
2022-08-04T16:01:17.575Z,2.75
2022-08-04T16:02:37.434Z,2.88
2022-08-04T16:03:58.311Z,2.88
2022-08-04T16:05:18.501Z,3.13
2022-08-04T16:06:20.379Z,2.63
2022-08-04T16:07:57.346Z,2.97
2022-08-04T16:09:01.565Z,3.03
2022-08-04T16:10:39.959Z,2.60
2022-08-04T16:11:41.550Z,3.13
2022-08-04T16:12:54.987Z,2.78
2022-08-04T16:13:59.746Z,3.05
2022-08-04T16:15:36.944Z,2.72
2022-08-04T16:16:42.264Z,2.70
2022-08-04T16:17:45.720Z,2.67